createdAt,value
2022-08-14T00:00:57.136Z,23.26
2022-08-14T00:01:57.638Z,23.23
2022-08-14T00:02:57.471Z,23.21
2022-08-14T00:03:57.603Z,23.20
2022-08-14T00:04:57.808Z,23.20
2022-08-14T00:05:59.956Z,23.21
2022-08-14T00:06:58.066Z,23.20
2022-08-14T00:07:58.224Z,23.21
2022-08-14T00:08:59.194Z,23.21
2022-08-14T00:10:49.593Z,23.20
2022-08-14T00:10:59.631Z,23.20
2022-08-14T00:11:58.808Z,23.20
2022-08-14T00:12:59.072Z,23.21
2022-08-14T00:13:59.142Z,23.23
2022-08-14T00:14:59.279Z,23.25
2022-08-14T00:15:59.442Z,23.26
2022-08-14T00:17:00.967Z,23.25
2022-08-14T00:17:59.722Z,23.26
2022-08-14T00:19:06.199Z,23.26
2022-08-14T00:20:01.051Z,23.28
2022-08-14T00:21:00.204Z,23.28
2022-08-14T00:22:00.292Z,23.32
2022-08-14T00:23:12.208Z,23.34
2022-08-14T00:24:02.360Z,23.36
2022-08-14T00:25:00.722Z,23.36
2022-08-14T00:26:06.548Z,23.34
2022-08-14T00:27:02.807Z,23.32
2022-08-14T00:28:01.144Z,23.34
2022-08-14T00:29:01.291Z,23.32
2022-08-14T00:30:01.442Z,23.29
2022-08-14T00:31:01.959Z,23.32
2022-08-14T00:32:01.763Z,23.29
2022-08-14T00:33:15.151Z,23.26
2022-08-14T00:34:37.089Z,23.28
2022-08-14T00:35:03.214Z,23.29
2022-08-14T00:36:35.515Z,23.26
2022-08-14T00:37:03.465Z,23.25
2022-08-14T00:38:02.621Z,23.20
2022-08-14T00:39:02.822Z,23.17
2022-08-14T00:40:03.023Z,23.17
2022-08-14T00:41:04.219Z,23.16
2022-08-14T00:42:03.362Z,23.14
2022-08-14T00:43:03.716Z,23.14
2022-08-14T00:44:03.657Z,23.11
2022-08-14T00:45:03.837Z,23.11
2022-08-14T00:46:05.287Z,23.08
2022-08-14T00:47:04.120Z,23.10
2022-08-14T00:48:04.222Z,23.10
2022-08-14T00:49:04.372Z,23.07
2022-08-14T00:50:04.552Z,23.08
2022-08-14T00:51:04.662Z,23.07
2022-08-14T00:52:04.832Z,23.08
2022-08-14T00:53:04.932Z,23.07
2022-08-14T00:54:05.089Z,23.06
2022-08-14T00:55:06.182Z,23.02
2022-08-14T00:56:07.029Z,23.01
2022-08-14T00:57:05.519Z,23.01
2022-08-14T00:58:05.709Z,22.99
2022-08-14T00:59:05.832Z,23.01
2022-08-14T01:00:06.029Z,22.99
2022-08-14T01:01:07.161Z,22.99
2022-08-14T01:02:06.352Z,22.98
2022-08-14T01:03:06.450Z,22.98
2022-08-14T01:04:06.633Z,22.98
2022-08-14T01:05:06.771Z,22.98
2022-08-14T01:06:07.281Z,22.96
2022-08-14T01:07:08.099Z,22.95
2022-08-14T01:08:07.206Z,22.93
2022-08-14T01:09:08.330Z,22.93
2022-08-14T01:10:07.501Z,22.92
2022-08-14T01:11:07.648Z,22.91
2022-08-14T01:12:07.964Z,22.86
2022-08-14T01:13:07.981Z,22.86
2022-08-14T01:14:25.922Z,22.86
2022-08-14T01:15:09.769Z,22.86
2022-08-14T01:16:09.392Z,22.86
2022-08-14T01:17:08.770Z,22.84
2022-08-14T01:18:08.738Z,22.83
2022-08-14T01:19:08.873Z,22.78
2022-08-14T01:20:09.034Z,22.78
2022-08-14T01:21:11.235Z,22.76
2022-08-14T01:22:12.715Z,22.76
2022-08-14T01:23:09.509Z,22.74
2022-08-14T01:24:10.985Z,22.73
2022-08-14T01:25:09.731Z,22.73
2022-08-14T01:26:11.642Z,22.74
2022-08-14T01:27:10.051Z,22.74
2022-08-14T01:28:11.403Z,22.74
2022-08-14T01:29:16.174Z,22.76
2022-08-14T01:30:11.545Z,22.76
2022-08-14T01:31:11.765Z,22.73
2022-08-14T01:32:10.945Z,22.77
2022-08-14T01:33:11.093Z,22.74
2022-08-14T01:35:17.299Z,22.76
2022-08-14T01:35:21.146Z,22.74
2022-08-14T01:36:21.122Z,22.76
2022-08-14T01:37:12.712Z,22.76
2022-08-14T01:38:11.882Z,22.77
2022-08-14T01:39:13.159Z,22.77
2022-08-14T01:40:12.269Z,22.77
2022-08-14T01:41:15.000Z,22.77
2022-08-14T01:42:31.796Z,22.76
2022-08-14T01:43:13.755Z,22.76
2022-08-14T01:44:33.315Z,22.77
2022-08-14T01:45:17.718Z,22.77
2022-08-14T01:46:24.430Z,22.76
2022-08-14T01:47:21.714Z,22.77
2022-08-14T01:48:14.604Z,22.76
2022-08-14T01:49:13.757Z,22.76
2022-08-14T01:50:14.326Z,22.76
2022-08-14T01:51:19.363Z,22.77
2022-08-14T01:52:34.434Z,22.77
2022-08-14T01:53:15.316Z,22.77
2022-08-14T01:54:14.567Z,22.77
2022-08-14T01:55:14.698Z,22.76
2022-08-14T01:56:18.409Z,22.76
2022-08-14T01:57:14.983Z,22.74
2022-08-14T01:58:19.886Z,22.73
2022-08-14T01:59:18.257Z,22.71
2022-08-14T02:00:15.393Z,22.73
2022-08-14T02:01:15.584Z,22.73
2022-08-14T02:02:19.980Z,22.73
2022-08-14T02:03:16.830Z,22.76
2022-08-14T02:04:20.520Z,22.77
2022-08-14T02:05:17.111Z,22.76
2022-08-14T02:06:32.241Z,22.76
2022-08-14T02:07:17.380Z,22.77
2022-08-14T02:08:22.583Z,22.77
2022-08-14T02:09:19.302Z,22.77
2022-08-14T02:10:17.978Z,22.80
2022-08-14T02:11:16.876Z,22.81
2022-08-14T02:12:19.737Z,22.81
2022-08-14T02:13:18.213Z,22.81
2022-08-14T02:14:31.206Z,22.83
2022-08-14T02:15:18.487Z,22.83
2022-08-14T02:16:22.380Z,22.83
2022-08-14T02:17:18.788Z,22.88
2022-08-14T02:18:17.965Z,22.88
2022-08-14T02:19:18.087Z,22.91
2022-08-14T02:20:20.025Z,22.92
2022-08-14T02:21:23.113Z,22.91
2022-08-14T02:22:32.733Z,22.92
2022-08-14T02:23:27.786Z,22.93
2022-08-14T02:24:40.073Z,22.92
2022-08-14T02:25:20.087Z,22.92
2022-08-14T02:26:24.555Z,22.92
2022-08-14T02:28:24.454Z,22.92
2022-08-14T02:28:55.825Z,22.91
2022-08-14T02:29:20.712Z,22.92
2022-08-14T02:30:19.853Z,22.93
2022-08-14T02:31:20.014Z,22.95
2022-08-14T02:32:29.962Z,22.93
2022-08-14T02:33:21.366Z,22.93
2022-08-14T02:34:26.355Z,22.91
2022-08-14T02:35:21.835Z,22.91
2022-08-14T02:37:03.509Z,22.92
2022-08-14T02:37:21.936Z,22.93
2022-08-14T02:38:30.595Z,22.93
2022-08-14T02:39:22.227Z,22.93
2022-08-14T02:40:32.623Z,22.92
2022-08-14T02:41:22.477Z,22.93
2022-08-14T02:42:23.401Z,22.91
2022-08-14T02:43:22.892Z,22.89
2022-08-14T02:44:21.907Z,22.88
2022-08-14T02:45:23.015Z,22.89
2022-08-14T02:46:24.512Z,22.89
2022-08-14T02:47:23.275Z,22.89
2022-08-14T02:49:01.875Z,22.92
2022-08-14T02:49:25.308Z,22.91
2022-08-14T02:50:27.203Z,22.89
2022-08-14T02:51:22.905Z,22.84
2022-08-14T02:52:55.517Z,22.81
2022-08-14T02:53:24.185Z,22.77
2022-08-14T02:54:23.381Z,22.76
2022-08-14T02:55:23.529Z,22.76
2022-08-14T02:56:30.962Z,22.77
2022-08-14T02:57:40.341Z,22.77
2022-08-14T02:58:30.432Z,22.77
2022-08-14T02:59:25.007Z,22.78
2022-08-14T03:00:24.195Z,22.76
2022-08-14T03:01:26.255Z,22.77
2022-08-14T03:02:48.920Z,22.74
2022-08-14T03:03:25.542Z,22.74
2022-08-14T03:04:25.305Z,22.76
2022-08-14T03:05:24.772Z,22.80
2022-08-14T03:06:56.873Z,22.81
2022-08-14T03:07:26.042Z,22.81
2022-08-14T03:08:25.227Z,22.81
2022-08-14T03:09:25.415Z,22.81
2022-08-14T03:10:33.280Z,22.81
2022-08-14T03:11:26.638Z,22.80
2022-08-14T03:12:31.038Z,22.80
2022-08-14T03:13:27.051Z,22.78
2022-08-14T03:14:27.641Z,22.78
2022-08-14T03:15:26.353Z,22.78
2022-08-14T03:16:27.043Z,22.77
2022-08-14T03:17:26.666Z,22.73
2022-08-14T03:18:31.131Z,22.71
2022-08-14T03:19:26.965Z,22.68
2022-08-14T03:20:27.073Z,22.67
2022-08-14T03:21:27.190Z,22.63
2022-08-14T03:22:37.000Z,22.63
2022-08-14T03:23:28.426Z,22.63
2022-08-14T03:24:27.615Z,22.63
2022-08-14T03:25:27.779Z,22.65
2022-08-14T03:26:30.301Z,22.67
2022-08-14T03:27:35.560Z,22.68
2022-08-14T03:28:29.593Z,22.68
2022-08-14T03:29:29.521Z,22.63
2022-08-14T03:30:38.819Z,22.61
2022-08-14T03:31:30.253Z,22.61
2022-08-14T03:32:30.549Z,22.59
2022-08-14T03:33:38.259Z,22.56
2022-08-14T03:34:55.296Z,22.55
2022-08-14T03:35:37.394Z,22.51
2022-08-14T03:37:39.531Z,22.51
2022-08-14T03:39:10.806Z,22.49
2022-08-14T03:39:15.483Z,22.47
2022-08-14T03:39:30.980Z,22.47
2022-08-14T03:40:30.138Z,22.51
2022-08-14T03:41:33.140Z,22.55
2022-08-14T03:42:31.083Z,22.56
2022-08-14T03:43:32.475Z,22.58
2022-08-14T03:45:19.644Z,22.58
2022-08-14T03:45:34.722Z,22.56
2022-08-14T03:46:38.718Z,22.56
2022-08-14T03:47:46.629Z,22.55
2022-08-14T03:48:32.337Z,22.53
2022-08-14T03:49:32.456Z,22.55
2022-08-14T03:50:32.335Z,22.56
2022-08-14T03:51:31.838Z,22.58
2022-08-14T03:52:40.896Z,22.58
2022-08-14T03:53:34.983Z,22.61
2022-08-14T03:54:32.355Z,22.61
2022-08-14T03:55:32.414Z,22.59
2022-08-14T03:56:32.529Z,22.59
2022-08-14T03:57:32.904Z,22.58
2022-08-14T03:58:36.550Z,22.56
2022-08-14T03:59:33.004Z,22.56
2022-08-14T04:00:43.674Z,22.55
2022-08-14T04:01:41.588Z,22.55
2022-08-14T04:02:37.367Z,22.55
2022-08-14T04:03:37.433Z,22.56
2022-08-14T04:04:33.814Z,22.59
2022-08-14T04:05:42.719Z,22.59
2022-08-14T04:06:34.927Z,22.58
2022-08-14T04:07:36.069Z,22.56
2022-08-14T04:08:34.340Z,22.58
2022-08-14T04:09:34.505Z,22.56
2022-08-14T04:10:34.672Z,22.58
2022-08-14T04:11:34.840Z,22.59
2022-08-14T04:12:35.003Z,22.55
2022-08-14T04:13:35.119Z,22.58
2022-08-14T04:14:37.257Z,22.56
2022-08-14T04:15:52.877Z,22.58
2022-08-14T04:16:36.688Z,22.58
2022-08-14T04:17:35.846Z,22.61
2022-08-14T04:18:35.998Z,22.61
2022-08-14T04:19:36.436Z,22.62
2022-08-14T04:20:51.675Z,22.63
2022-08-14T04:21:40.020Z,22.65
2022-08-14T04:22:37.579Z,22.67
2022-08-14T04:23:36.739Z,22.67
2022-08-14T04:24:37.950Z,22.67
2022-08-14T04:25:37.081Z,22.65
2022-08-14T04:26:43.178Z,22.68
2022-08-14T04:28:01.802Z,22.67
2022-08-14T04:29:01.658Z,22.67
2022-08-14T04:29:38.614Z,22.68
2022-08-14T04:30:37.708Z,22.71
2022-08-14T04:33:02.249Z,22.70
2022-08-14T04:33:03.021Z,22.71
2022-08-14T04:33:39.102Z,22.76
2022-08-14T04:34:38.278Z,22.77
2022-08-14T04:35:55.390Z,22.76
2022-08-14T04:36:39.581Z,22.77
2022-08-14T04:37:38.794Z,22.80
2022-08-14T04:38:39.799Z,22.80
2022-08-14T04:39:46.235Z,22.83
2022-08-14T04:40:40.703Z,22.86
2022-08-14T04:41:39.396Z,22.88
2022-08-14T04:42:39.529Z,22.86
2022-08-14T04:43:40.630Z,22.83
2022-08-14T04:44:39.810Z,22.77
2022-08-14T04:45:39.977Z,22.78
2022-08-14T04:46:56.109Z,22.78
2022-08-14T04:47:46.317Z,22.78
2022-08-14T04:48:43.791Z,22.78
2022-08-14T04:49:46.732Z,22.80
2022-08-14T04:50:45.111Z,22.80
2022-08-14T04:51:55.565Z,22.83
2022-08-14T04:52:41.975Z,22.84
2022-08-14T04:53:43.157Z,22.89
2022-08-14T04:54:41.196Z,22.89
2022-08-14T04:55:41.388Z,22.92
2022-08-14T04:56:42.697Z,22.93
2022-08-14T04:57:41.666Z,22.93
2022-08-14T04:58:41.802Z,22.98
2022-08-14T04:59:42.794Z,23.04
2022-08-14T05:00:42.121Z,23.06
2022-08-14T05:01:45.309Z,23.08
2022-08-14T05:02:43.612Z,23.11
2022-08-14T05:03:42.535Z,23.16
2022-08-14T05:04:45.158Z,23.17
2022-08-14T05:05:43.797Z,23.18
2022-08-14T05:06:43.017Z,23.25
2022-08-14T05:07:46.909Z,23.28
2022-08-14T05:08:59.744Z,23.33
2022-08-14T05:09:48.046Z,23.37
2022-08-14T05:10:44.569Z,23.40
2022-08-14T05:11:44.227Z,23.47
2022-08-14T05:13:12.546Z,23.51
2022-08-14T05:14:16.251Z,23.54
2022-08-14T05:14:53.722Z,23.59
2022-08-14T05:15:45.340Z,23.64
2022-08-14T05:16:46.714Z,23.69
2022-08-14T05:17:54.045Z,23.70
2022-08-14T05:19:18.784Z,23.73
2022-08-14T05:21:55.271Z,23.82
2022-08-14T05:21:57.919Z,23.76
2022-08-14T05:21:59.633Z,23.86
2022-08-14T05:22:46.143Z,23.92
2022-08-14T05:23:45.286Z,23.96
2022-08-14T05:24:45.479Z,24.03
2022-08-14T05:25:45.637Z,24.09
2022-08-14T05:26:45.805Z,24.14
2022-08-14T05:27:45.941Z,24.16
2022-08-14T05:28:46.102Z,24.24
2022-08-14T05:29:46.254Z,24.34
2022-08-14T05:30:46.369Z,24.37
2022-08-14T05:31:46.518Z,24.43
2022-08-14T05:32:46.742Z,24.56
2022-08-14T05:33:46.776Z,24.61
2022-08-14T05:34:47.887Z,24.65
2022-08-14T05:35:47.034Z,24.69
2022-08-14T05:36:50.593Z,24.71
2022-08-14T05:37:48.334Z,24.75
2022-08-14T05:38:47.421Z,24.75
2022-08-14T05:39:47.644Z,24.78
2022-08-14T05:40:47.728Z,24.81
2022-08-14T05:41:52.793Z,24.82
2022-08-14T05:42:52.793Z,24.85
2022-08-14T05:43:48.151Z,24.86
2022-08-14T05:44:48.250Z,24.94
2022-08-14T05:45:48.385Z,25.01
2022-08-14T05:46:48.533Z,25.09
2022-08-14T05:47:50.712Z,25.15
2022-08-14T05:48:48.795Z,25.15
2022-08-14T05:49:48.945Z,25.19
2022-08-14T05:50:49.105Z,25.22
2022-08-14T05:51:49.237Z,25.29
2022-08-14T05:52:49.370Z,25.33
2022-08-14T05:54:01.384Z,25.43
2022-08-14T05:54:50.571Z,25.51
2022-08-14T05:55:49.720Z,25.51
2022-08-14T05:56:49.890Z,25.56
2022-08-14T05:57:50.060Z,25.59
2022-08-14T05:58:50.214Z,25.67
2022-08-14T05:59:50.358Z,25.73
2022-08-14T06:00:50.529Z,25.80
2022-08-14T06:01:51.027Z,25.83
2022-08-14T06:02:50.841Z,25.80
2022-08-14T06:03:50.886Z,25.89
2022-08-14T06:04:51.053Z,25.91
2022-08-14T06:05:51.982Z,25.96
2022-08-14T06:06:51.319Z,25.98
2022-08-14T06:07:51.424Z,25.99
2022-08-14T06:08:51.524Z,26.04
2022-08-14T06:09:52.445Z,26.11
2022-08-14T06:10:51.770Z,26.15
2022-08-14T06:11:51.940Z,26.23
2022-08-14T06:12:56.605Z,26.27
2022-08-14T06:13:53.126Z,26.33
2022-08-14T06:14:52.287Z,26.42
2022-08-14T06:15:52.452Z,26.49
2022-08-14T06:16:53.191Z,26.61
2022-08-14T06:17:58.591Z,26.68
2022-08-14T06:18:53.727Z,26.82
2022-08-14T06:19:53.817Z,26.88
2022-08-14T06:20:52.912Z,26.98
2022-08-14T06:21:59.287Z,27.04
2022-08-14T06:22:54.177Z,27.00
2022-08-14T06:23:53.325Z,26.98
2022-08-14T06:24:53.446Z,27.04
2022-08-14T06:25:53.608Z,27.10
2022-08-14T06:26:56.785Z,27.15
2022-08-14T06:27:54.832Z,27.18
2022-08-14T06:28:53.920Z,27.18
2022-08-14T06:29:54.043Z,27.16
2022-08-14T06:30:54.187Z,27.16
2022-08-14T06:32:00.004Z,27.15
2022-08-14T06:32:55.661Z,27.19
2022-08-14T06:35:11.110Z,27.26
2022-08-14T06:35:11.123Z,27.23
2022-08-14T06:35:55.730Z,27.34
2022-08-14T06:36:54.866Z,27.35
2022-08-14T06:37:55.023Z,27.44
2022-08-14T06:38:55.154Z,27.52
2022-08-14T06:39:55.341Z,27.60
2022-08-14T06:40:55.468Z,27.61
2022-08-14T06:41:57.820Z,27.66
2022-08-14T06:42:55.672Z,27.76
2022-08-14T06:43:55.765Z,27.88
2022-08-14T06:44:59.885Z,28.03
2022-08-14T06:45:57.014Z,28.20
2022-08-14T06:46:56.160Z,28.20
2022-08-14T06:47:58.590Z,28.09
2022-08-14T06:48:56.377Z,27.94
2022-08-14T06:49:58.259Z,28.03
2022-08-14T06:50:57.855Z,28.13
2022-08-14T06:51:56.657Z,28.16
2022-08-14T06:52:56.792Z,28.23
2022-08-14T06:53:56.928Z,28.31
2022-08-14T06:54:57.059Z,28.28
2022-08-14T06:55:57.926Z,28.34
2022-08-14T06:56:57.327Z,28.33
2022-08-14T06:57:57.926Z,28.38
2022-08-14T06:58:57.587Z,28.59
2022-08-14T06:59:57.722Z,28.89
2022-08-14T07:00:57.917Z,29.06
2022-08-14T07:01:58.013Z,29.12
2022-08-14T07:02:58.127Z,29.13
2022-08-14T07:03:58.214Z,29.06
2022-08-14T07:04:58.376Z,28.78
2022-08-14T07:05:58.804Z,28.60
2022-08-14T07:06:59.499Z,28.68
2022-08-14T07:07:58.714Z,28.87
2022-08-14T07:08:58.827Z,29.00
2022-08-14T07:09:58.944Z,29.28
2022-08-14T07:10:59.635Z,29.49
2022-08-14T07:11:59.220Z,29.68
2022-08-14T07:13:03.615Z,29.69
2022-08-14T07:14:00.339Z,29.50
2022-08-14T07:15:01.243Z,29.44
2022-08-14T07:16:00.564Z,29.25
2022-08-14T07:17:00.622Z,29.07
2022-08-14T07:17:59.729Z,28.74
2022-08-14T07:18:59.800Z,28.78
2022-08-14T07:19:59.869Z,29.02
2022-08-14T07:21:00.000Z,29.24
2022-08-14T07:22:00.065Z,29.55
2022-08-14T07:23:07.639Z,29.74
2022-08-14T07:24:01.173Z,29.76
2022-08-14T07:25:00.276Z,29.86
2022-08-14T07:26:00.409Z,29.90
2022-08-14T07:27:00.512Z,30.17
2022-08-14T07:28:00.629Z,30.44
2022-08-14T07:29:00.723Z,30.83
2022-08-14T07:30:00.754Z,31.04
2022-08-14T07:31:04.627Z,31.17
2022-08-14T07:32:00.984Z,31.36
2022-08-14T07:33:01.049Z,31.55
2022-08-14T07:34:01.126Z,31.66
2022-08-14T07:35:01.239Z,31.62
2022-08-14T07:36:01.359Z,31.63
2022-08-14T07:37:01.639Z,31.74
2022-08-14T07:38:01.529Z,31.85
2022-08-14T07:39:03.263Z,32.04
2022-08-14T07:40:02.724Z,32.01
2022-08-14T07:41:01.880Z,31.98
2022-08-14T07:42:01.999Z,31.90
2022-08-14T07:43:14.611Z,32.08
2022-08-14T07:44:32.058Z,32.09
2022-08-14T07:45:03.189Z,32.27
2022-08-14T07:46:02.737Z,32.45
2022-08-14T07:47:02.351Z,32.37
2022-08-14T07:48:02.476Z,32.38
2022-08-14T07:49:02.508Z,32.27
2022-08-14T07:50:02.635Z,32.34
2022-08-14T07:51:03.220Z,32.57
2022-08-14T07:52:03.728Z,32.72
2022-08-14T07:53:02.811Z,32.78
2022-08-14T07:54:03.447Z,32.67
2022-08-14T07:55:02.951Z,32.81
2022-08-14T07:56:09.102Z,32.68
2022-08-14T07:57:12.301Z,32.72
2022-08-14T07:58:05.924Z,32.86
2022-08-14T07:59:04.169Z,32.97
2022-08-14T08:00:04.203Z,33.28
2022-08-14T08:01:03.291Z,33.31
2022-08-14T08:02:03.389Z,33.50
2022-08-14T08:03:03.466Z,33.50
2022-08-14T08:04:03.530Z,33.33
2022-08-14T08:05:03.613Z,33.22
2022-08-14T08:06:03.693Z,33.40
2022-08-14T08:07:05.748Z,33.47
2022-08-14T08:08:03.863Z,33.55
2022-08-14T08:09:03.944Z,33.88
2022-08-14T08:10:04.037Z,33.88
2022-08-14T08:11:04.163Z,33.92
2022-08-14T08:12:04.845Z,34.16
2022-08-14T08:13:04.292Z,34.09
2022-08-14T08:14:04.354Z,34.02
2022-08-14T08:15:07.092Z,34.00
2022-08-14T08:16:04.463Z,34.53
2022-08-14T08:17:04.514Z,34.55
2022-08-14T08:18:04.613Z,34.62
2022-08-14T08:19:12.755Z,34.73
2022-08-14T08:20:05.672Z,34.89
2022-08-14T08:21:04.773Z,35.22
2022-08-14T08:22:04.854Z,35.34
2022-08-14T08:23:06.148Z,35.34
2022-08-14T08:24:04.994Z,35.68
2022-08-14T08:25:09.745Z,35.93
2022-08-14T08:26:06.101Z,35.79
2022-08-14T08:27:05.184Z,35.49
2022-08-14T08:28:08.150Z,35.30
2022-08-14T08:29:05.316Z,35.34
2022-08-14T08:30:05.354Z,34.91
2022-08-14T08:31:06.373Z,35.00
2022-08-14T08:32:06.186Z,35.20
2022-08-14T08:33:05.451Z,35.52
2022-08-14T08:34:05.496Z,35.52
2022-08-14T08:35:05.555Z,34.91
2022-08-14T08:36:05.636Z,34.82
2022-08-14T08:37:07.315Z,35.12
2022-08-14T08:38:14.372Z,35.35
2022-08-14T08:39:16.567Z,35.60
2022-08-14T08:40:06.789Z,35.86
2022-08-14T08:41:05.722Z,35.90
2022-08-14T08:42:06.719Z,35.66
2022-08-14T08:43:05.708Z,35.39
2022-08-14T08:44:05.857Z,35.20
2022-08-14T08:45:06.737Z,34.83
2022-08-14T08:46:06.744Z,34.88
2022-08-14T08:47:06.987Z,35.15
2022-08-14T08:48:18.414Z,35.32
2022-08-14T08:49:07.807Z,35.60
2022-08-14T08:50:23.100Z,35.88
2022-08-14T08:51:05.863Z,35.88
2022-08-14T08:52:05.889Z,35.93
2022-08-14T08:53:05.998Z,36.20
2022-08-14T08:54:05.918Z,36.41
2022-08-14T08:55:05.949Z,36.09
2022-08-14T08:56:05.979Z,36.28
2022-08-14T08:57:05.991Z,36.13
2022-08-14T08:58:12.538Z,35.93
2022-08-14T08:59:06.940Z,35.86
2022-08-14T09:00:09.954Z,35.81
2022-08-14T09:01:06.976Z,35.59
2022-08-14T09:02:06.009Z,35.56
2022-08-14T09:03:06.059Z,35.23
2022-08-14T09:04:07.556Z,35.00
2022-08-14T09:05:07.085Z,34.71
2022-08-14T09:06:53.591Z,34.93
2022-08-14T09:07:10.979Z,35.01
2022-08-14T09:08:06.090Z,35.19
2022-08-14T09:09:07.063Z,35.47
2022-08-14T09:10:06.017Z,35.81
2022-08-14T09:11:19.992Z,35.97
2022-08-14T09:12:07.001Z,36.00
2022-08-14T09:13:06.975Z,35.75
2022-08-14T09:14:05.928Z,35.52
2022-08-14T09:15:12.297Z,35.63
2022-08-14T09:16:18.576Z,35.71
2022-08-14T09:17:06.884Z,35.60
2022-08-14T09:18:05.898Z,35.64
2022-08-14T09:19:05.900Z,35.35
2022-08-14T09:20:05.909Z,35.34
2022-08-14T09:21:07.074Z,35.49
2022-08-14T09:22:35.603Z,35.61
2022-08-14T09:23:09.859Z,35.87
2022-08-14T09:24:28.867Z,35.82
2022-08-14T09:25:07.423Z,35.72
2022-08-14T09:26:20.859Z,35.60
2022-08-14T09:27:06.940Z,35.90
2022-08-14T09:28:05.799Z,35.76
2022-08-14T09:29:05.794Z,35.78
2022-08-14T09:30:31.655Z,35.41
2022-08-14T09:31:11.940Z,35.18
2022-08-14T09:32:26.940Z,35.19
2022-08-14T09:33:11.005Z,34.96
2022-08-14T09:34:09.398Z,34.70
2022-08-14T09:35:08.484Z,34.82
2022-08-14T09:36:05.523Z,35.05
2022-08-14T09:37:05.565Z,35.03
2022-08-14T09:38:05.573Z,35.07
2022-08-14T09:39:05.612Z,35.19
2022-08-14T09:40:05.665Z,35.44
2022-08-14T09:41:05.571Z,35.63
2022-08-14T09:42:20.658Z,35.23
2022-08-14T09:43:06.579Z,35.13
2022-08-14T09:44:06.402Z,35.01
2022-08-14T09:45:12.617Z,34.89
2022-08-14T09:46:05.648Z,34.65
2022-08-14T09:47:05.676Z,34.78
2022-08-14T09:48:08.408Z,34.85
2022-08-14T09:49:05.649Z,34.82
2022-08-14T09:50:05.671Z,34.75
2022-08-14T09:51:44.980Z,34.85
2022-08-14T09:52:41.943Z,35.07
2022-08-14T09:54:18.238Z,35.10
2022-08-14T09:54:40.204Z,35.13
2022-08-14T09:55:41.861Z,35.15
2022-08-14T09:56:39.534Z,35.38
2022-08-14T09:57:39.681Z,35.41
2022-08-14T09:58:39.846Z,35.00
2022-08-14T09:59:39.954Z,34.50
2022-08-14T10:00:40.110Z,34.62
2022-08-14T10:01:40.385Z,34.86
2022-08-14T10:02:45.643Z,34.93
2022-08-14T10:03:41.501Z,34.55
2022-08-14T10:04:46.045Z,34.10
2022-08-14T10:05:41.763Z,33.60
2022-08-14T10:06:40.932Z,33.44
2022-08-14T10:07:41.310Z,33.47
2022-08-14T10:08:42.186Z,33.84
2022-08-14T10:09:41.367Z,33.95
2022-08-14T10:10:41.815Z,34.32
2022-08-14T10:11:43.350Z,34.37
2022-08-14T10:12:41.839Z,34.37
2022-08-14T10:13:52.795Z,34.71
2022-08-14T10:14:43.098Z,35.05
2022-08-14T10:15:43.202Z,35.18
2022-08-14T10:16:42.377Z,35.07
2022-08-14T10:17:42.436Z,34.96
2022-08-14T10:18:42.565Z,34.56
2022-08-14T10:19:42.718Z,34.37
2022-08-14T10:20:44.935Z,34.31
2022-08-14T10:23:11.045Z,34.46
2022-08-14T10:23:23.005Z,34.70
2022-08-14T10:23:44.274Z,34.63
2022-08-14T10:24:43.409Z,34.73
2022-08-14T10:25:43.584Z,34.96
2022-08-14T10:26:43.758Z,35.10
2022-08-14T10:27:43.923Z,35.45
2022-08-14T10:29:18.454Z,35.79
2022-08-14T10:29:45.183Z,36.25
2022-08-14T10:30:44.347Z,36.84
2022-08-14T10:31:45.579Z,37.41
2022-08-14T10:32:51.306Z,37.90
2022-08-14T10:33:50.802Z,37.97
2022-08-14T10:34:45.721Z,37.34
2022-08-14T10:35:48.251Z,36.69
2022-08-14T10:36:48.078Z,36.26
2022-08-14T10:37:46.014Z,36.01
2022-08-14T10:38:50.500Z,36.06
2022-08-14T10:39:51.344Z,36.18
2022-08-14T10:40:52.235Z,36.29
2022-08-14T10:41:48.645Z,36.25
2022-08-14T10:42:45.699Z,36.51
2022-08-14T10:43:45.533Z,36.53
2022-08-14T10:44:45.697Z,36.28
2022-08-14T10:45:51.879Z,36.31
2022-08-14T10:47:41.475Z,36.36
2022-08-14T10:48:07.206Z,36.26
2022-08-14T10:48:47.047Z,36.06
2022-08-14T10:49:46.139Z,36.05
2022-08-14T10:50:46.461Z,36.24
2022-08-14T10:51:46.326Z,36.13
2022-08-14T10:52:46.576Z,36.54
2022-08-14T10:53:46.555Z,36.89
2022-08-14T10:54:47.466Z,37.36
2022-08-14T10:55:46.768Z,37.75
2022-08-14T10:56:46.859Z,37.95
2022-08-14T10:57:46.988Z,38.35
2022-08-14T10:58:47.115Z,38.62
2022-08-14T10:59:47.223Z,38.69
2022-08-14T11:00:47.412Z,39.10
2022-08-14T11:01:47.414Z,39.37
2022-08-14T11:02:54.961Z,39.34
2022-08-14T11:03:55.286Z,39.20
2022-08-14T11:04:48.700Z,38.98
2022-08-14T11:05:47.803Z,39.10
2022-08-14T11:06:47.866Z,39.37
2022-08-14T11:07:48.028Z,39.32
2022-08-14T11:08:49.077Z,38.92
2022-08-14T11:09:48.174Z,38.82
2022-08-14T11:10:48.273Z,38.75
2022-08-14T11:11:48.370Z,38.29
2022-08-14T11:12:49.582Z,37.82
2022-08-14T11:13:48.477Z,38.02
2022-08-14T11:14:48.586Z,38.17
2022-08-14T11:15:48.640Z,38.47
2022-08-14T11:16:53.257Z,38.81
2022-08-14T11:17:49.781Z,38.76
2022-08-14T11:18:50.960Z,38.63
2022-08-14T11:19:53.824Z,38.69
2022-08-14T11:20:50.111Z,38.73
2022-08-14T11:21:49.205Z,39.10
2022-08-14T11:22:55.865Z,39.49
2022-08-14T11:23:53.660Z,39.67
2022-08-14T11:24:55.571Z,40.28
2022-08-14T11:25:53.427Z,39.86
2022-08-14T11:26:49.442Z,38.16
2022-08-14T11:27:49.502Z,37.92
2022-08-14T11:28:49.738Z,38.04
2022-08-14T11:29:52.541Z,38.27
2022-08-14T11:30:54.303Z,38.36
2022-08-14T11:31:51.885Z,38.20
2022-08-14T11:32:49.871Z,38.05
2022-08-14T11:33:50.002Z,38.27
2022-08-14T11:34:50.116Z,38.16
2022-08-14T11:35:50.214Z,38.28
2022-08-14T11:37:04.374Z,38.77
2022-08-14T11:37:51.392Z,39.45
2022-08-14T11:38:50.487Z,40.14
2022-08-14T11:39:51.279Z,40.42
2022-08-14T11:40:52.591Z,40.40
2022-08-14T11:41:55.960Z,40.22
2022-08-14T11:42:58.142Z,40.07
2022-08-14T11:43:58.082Z,40.16
2022-08-14T11:44:53.859Z,39.42
2022-08-14T11:45:52.109Z,39.37
2022-08-14T11:46:51.335Z,38.84
2022-08-14T11:48:13.015Z,38.70
2022-08-14T11:49:02.470Z,38.75
2022-08-14T11:49:52.551Z,38.95
2022-08-14T11:50:51.662Z,38.96
2022-08-14T11:51:54.420Z,39.10
2022-08-14T11:52:51.863Z,38.75
2022-08-14T11:53:51.943Z,38.66
2022-08-14T11:54:52.048Z,38.16
2022-08-14T11:55:52.111Z,38.01
2022-08-14T11:56:52.146Z,37.98
2022-08-14T11:57:59.441Z,37.68
2022-08-14T11:58:53.342Z,37.67
2022-08-14T11:59:53.582Z,37.73
2022-08-14T12:00:52.844Z,37.54
2022-08-14T12:01:52.693Z,37.97
2022-08-14T12:03:02.735Z,38.02
2022-08-14T12:03:57.502Z,38.10
2022-08-14T12:04:53.113Z,37.76
2022-08-14T12:05:53.088Z,37.63
2022-08-14T12:06:53.209Z,38.17
2022-08-14T12:07:53.379Z,38.27
2022-08-14T12:08:53.492Z,38.69
2022-08-14T12:09:53.644Z,38.79
2022-08-14T12:10:53.814Z,38.91
2022-08-14T12:11:53.933Z,38.72
2022-08-14T12:12:54.102Z,38.62
2022-08-14T12:13:55.787Z,38.34
2022-08-14T12:14:54.356Z,38.04
2022-08-14T12:15:54.468Z,38.35
2022-08-14T12:16:54.609Z,38.73
2022-08-14T12:17:55.880Z,38.51
2022-08-14T12:18:54.881Z,38.91
2022-08-14T12:19:56.700Z,39.19
2022-08-14T12:20:59.930Z,39.29
2022-08-14T12:21:55.266Z,38.90
2022-08-14T12:22:55.407Z,38.90
2022-08-14T12:23:55.544Z,38.60
2022-08-14T12:24:55.672Z,38.51
2022-08-14T12:25:59.512Z,38.39
2022-08-14T12:26:57.912Z,38.65
2022-08-14T12:27:59.454Z,39.15
2022-08-14T12:29:00.160Z,39.52
2022-08-14T12:29:56.244Z,38.96
2022-08-14T12:30:56.622Z,38.90
2022-08-14T12:31:56.434Z,39.38
2022-08-14T12:32:56.562Z,39.52
2022-08-14T12:33:56.695Z,38.85
2022-08-14T12:34:56.824Z,39.19
2022-08-14T12:35:57.599Z,39.76
2022-08-14T12:36:57.100Z,40.08
2022-08-14T12:37:57.223Z,39.39
2022-08-14T12:38:57.352Z,39.20
2022-08-14T12:39:57.508Z,39.07
2022-08-14T12:40:57.632Z,39.26
2022-08-14T12:41:57.782Z,39.79
2022-08-14T12:42:57.953Z,39.98
2022-08-14T12:43:59.700Z,40.14
2022-08-14T12:44:58.060Z,40.34
2022-08-14T12:45:58.194Z,40.43
2022-08-14T12:46:58.333Z,39.54
2022-08-14T12:47:58.504Z,39.11
2022-08-14T12:48:58.607Z,39.41
2022-08-14T12:49:58.714Z,39.44
2022-08-14T12:50:58.855Z,39.39
2022-08-14T12:51:59.051Z,39.59
2022-08-14T12:53:13.983Z,39.60
2022-08-14T12:54:00.392Z,39.79
2022-08-14T12:55:06.465Z,40.08